sensor_id;sensor_type;location;lat;lon;timestamp;temperature;humidity
11009;DHT22;5557;51.670;7.788;2023-05-07T00:02:01;13.40;99.90
11009;DHT22;5557;51.670;7.788;2023-05-07T00:04:28;13.40;99.90
11009;DHT22;5557;51.670;7.788;2023-05-07T00:06:55;13.30;99.90
11009;DHT22;5557;51.670;7.788;2023-05-07T00:09:22;13.30;99.90
11009;DHT22;5557;51.670;7.788;2023-05-07T00:11:49;13.30;99.90
11009;DHT22;5557;51.670;7.788;2023-05-07T00:14:16;13.30;99.90
11009;DHT22;5557;51.670;7.788;2023-05-07T00:16:43;13.30;99.90
11009;DHT22;5557;51.670;7.788;2023-05-07T00:19:10;13.30;99.90
11009;DHT22;5557;51.670;7.788;2023-05-07T00:21:37;13.30;99.90
11009;DHT22;5557;51.670;7.788;2023-05-07T00:24:04;13.20;99.90
11009;DHT22;5557;51.670;7.788;2023-05-07T00:26:31;13.20;99.90
11009;DHT22;5557;51.670;7.788;2023-05-07T00:28:58;13.20;99.90
11009;DHT22;5557;51.670;7.788;2023-05-07T00:31:25;13.20;99.90
11009;DHT22;5557;51.670;7.788;2023-05-07T00:33:52;13.20;99.90
11009;DHT22;5557;51.670;7.788;2023-05-07T00:36:19;13.20;99.90
11009;DHT22;5557;51.670;7.788;2023-05-07T00:38:46;13.20;99.90
11009;DHT22;5557;51.670;7.788;2023-05-07T00:41:13;13.10;99.90
11009;DHT22;5557;51.670;7.788;2023-05-07T00:43:40;13.10;99.90
11009;DHT22;5557;51.670;7.788;2023-05-07T00:46:07;13.20;99.90
11009;DHT22;5557;51.670;7.788;2023-05-07T00:48:34;13.10;99.90
11009;DHT22;5557;51.670;7.788;2023-05-07T00:51:01;13.20;99.90
11009;DHT22;5557;51.670;7.788;2023-05-07T00:53:30;13.10;99.90
11009;DHT22;5557;51.670;7.788;2023-05-07T00:55:57;13.10;99.90
11009;DHT22;5557;51.670;7.788;2023-05-07T00:58:24;13.20;99.90
11009;DHT22;5557;51.670;7.788;2023-05-07T01:00:51;13.20;99.90
11009;DHT22;5557;51.670;7.788;2023-05-07T01:03:18;13.20;99.90
11009;DHT22;5557;51.670;7.788;2023-05-07T01:05:46;13.20;99.90
11009;DHT22;5557;51.670;7.788;2023-05-07T01:08:15;13.20;99.90
11009;DHT22;5557;51.670;7.788;2023-05-07T01:10:44;13.20;99.90
11009;DHT22;5557;51.670;7.788;2023-05-07T01:13:12;13.20;99.90
11009;DHT22;5557;51.670;7.788;2023-05-07T01:15:40;13.20;99.90
11009;DHT22;5557;51.670;7.788;2023-05-07T01:18:07;13.20;99.90
11009;DHT22;5557;51.670;7.788;2023-05-07T01:20:34;13.20;99.90
11009;DHT22;5557;51.670;7.788;2023-05-07T01:23:03;13.20;99.90
11009;DHT22;5557;51.670;7.788;2023-05-07T01:25:30;13.20;99.90
11009;DHT22;5557;51.670;7.788;2023-05-07T01:27:57;13.20;99.90
11009;DHT22;5557;51.670;7.788;2023-05-07T01:30:27;13.20;99.90
11009;DHT22;5557;51.670;7.788;2023-05-07T01:33:03;13.20;99.90
11009;DHT22;5557;51.670;7.788;2023-05-07T01:35:36;13.20;99.90
11009;DHT22;5557;51.670;7.788;2023-05-07T01:38:06;13.20;99.90
11009;DHT22;5557;51.670;7.788;2023-05-07T01:40:34;13.20;99.90
11009;DHT22;5557;51.670;7.788;2023-05-07T01:43:02;13.20;99.90
11009;DHT22;5557;51.670;7.788;2023-05-07T01:45:30;13.20;99.90
11009;DHT22;5557;51.670;7.788;2023-05-07T01:47:58;13.20;99.90
11009;DHT22;5557;51.670;7.788;2023-05-07T01:50:26;13.20;99.90
11009;DHT22;5557;51.670;7.788;2023-05-07T01:52:54;13.20;99.90
11009;DHT22;5557;51.670;7.788;2023-05-07T01:55:21;13.20;99.90
11009;DHT22;5557;51.670;7.788;2023-05-07T01:57:48;13.20;99.90
11009;DHT22;5557;51.670;7.788;2023-05-07T02:00:15;13.20;99.90
11009;DHT22;5557;51.670;7.788;2023-05-07T02:02:42;13.20;99.90
11009;DHT22;5557;51.670;7.788;2023-05-07T02:05:09;13.20;99.90
11009;DHT22;5557;51.670;7.788;2023-05-07T02:07:36;13.20;99.90
11009;DHT22;5557;51.670;7.788;2023-05-07T02:10:04;13.20;99.90
11009;DHT22;5557;51.670;7.788;2023-05-07T02:12:31;13.20;99.90
11009;DHT22;5557;51.670;7.788;2023-05-07T02:14:58;13.20;99.90
11009;DHT22;5557;51.670;7.788;2023-05-07T02:17:25;13.20;99.90
11009;DHT22;5557;51.670;7.788;2023-05-07T02:19:52;13.20;99.90
11009;DHT22;5557;51.670;7.788;2023-05-07T02:22:20;13.20;99.90
11009;DHT22;5557;51.670;7.788;2023-05-07T02:24:47;13.20;99.90
11009;DHT22;5557;51.670;7.788;2023-05-07T02:27:14;13.20;99.90
11009;DHT22;5557;51.670;7.788;2023-05-07T02:29:41;13.20;99.90
11009;DHT22;5557;51.670;7.788;2023-05-07T02:32:07;13.20;99.90
11009;DHT22;5557;51.670;7.788;2023-05-07T02:34:35;13.20;99.90
11009;DHT22;5557;51.670;7.788;2023-05-07T02:37:01;13.20;99.90
11009;DHT22;5557;51.670;7.788;2023-05-07T02:39:28;13.20;99.90
11009;DHT22;5557;51.670;7.788;2023-05-07T02:41:55;13.10;99.90
11009;DHT22;5557;51.670;7.788;2023-05-07T02:44:22;13.10;99.90
11009;DHT22;5557;51.670;7.788;2023-05-07T02:46:49;13.10;99.90
11009;DHT22;5557;51.670;7.788;2023-05-07T02:49:16;13.10;99.90
11009;DHT22;5557;51.670;7.788;2023-05-07T02:51:43;13.10;99.90
11009;DHT22;5557;51.670;7.788;2023-05-07T02:54:10;13.10;99.90
11009;DHT22;5557;51.670;7.788;2023-05-07T02:56:37;13.10;99.90
11009;DHT22;5557;51.670;7.788;2023-05-07T02:59:04;13.10;99.90
11009;DHT22;5557;51.670;7.788;2023-05-07T03:01:31;13.10;99.90
11009;DHT22;5557;51.670;7.788;2023-05-07T03:03:58;13.00;99.90
11009;DHT22;5557;51.670;7.788;2023-05-07T03:06:25;13.00;99.90
11009;DHT22;5557;51.670;7.788;2023-05-07T03:08:52;13.00;99.90
11009;DHT22;5557;51.670;7.788;2023-05-07T03:11:19;13.00;99.90
11009;DHT22;5557;51.670;7.788;2023-05-07T03:13:46;13.00;99.90
11009;DHT22;5557;51.670;7.788;2023-05-07T03:16:15;13.00;99.90
11009;DHT22;5557;51.670;7.788;2023-05-07T03:18:42;13.00;99.90
11009;DHT22;5557;51.670;7.788;2023-05-07T03:21:09;13.00;99.90
11009;DHT22;5557;51.670;7.788;2023-05-07T03:23:36;12.90;99.90
11009;DHT22;5557;51.670;7.788;2023-05-07T03:26:03;12.90;99.90
11009;DHT22;5557;51.670;7.788;2023-05-07T03:28:30;12.90;99.90
11009;DHT22;5557;51.670;7.788;2023-05-07T03:30:57;12.90;99.90
11009;DHT22;5557;51.670;7.788;2023-05-07T03:33:24;12.90;99.90
11009;DHT22;5557;51.670;7.788;2023-05-07T03:35:51;12.90;99.90
11009;DHT22;5557;51.670;7.788;2023-05-07T03:38:18;12.90;99.90
11009;DHT22;5557;51.670;7.788;2023-05-07T03:40:45;12.90;99.90
11009;DHT22;5557;51.670;7.788;2023-05-07T03:43:11;12.90;99.90
11009;DHT22;5557;51.670;7.788;2023-05-07T03:45:38;12.90;99.90
11009;DHT22;5557;51.670;7.788;2023-05-07T03:48:05;12.90;99.90
11009;DHT22;5557;51.670;7.788;2023-05-07T03:50:32;12.90;99.90
11009;DHT22;5557;51.670;7.788;2023-05-07T03:52:59;12.90;99.90
11009;DHT22;5557;51.670;7.788;2023-05-07T03:55:26;12.90;99.90
11009;DHT22;5557;51.670;7.788;2023-05-07T03:57:53;12.90;99.90
11009;DHT22;5557;51.670;7.788;2023-05-07T04:00:20;12.90;99.90
11009;DHT22;5557;51.670;7.788;2023-05-07T04:02:48;12.90;99.90
11009;DHT22;5557;51.670;7.788;2023-05-07T04:05:15;12.90;99.90
11009;DHT22;5557;51.670;7.788;2023-05-07T04:08:00;12.90;99.90
11009;DHT22;5557;51.670;7.788;2023-05-07T04:10:28;12.90;99.90
11009;DHT22;5557;51.670;7.788;2023-05-07T04:12:55;12.90;99.90
11009;DHT22;5557;51.670;7.788;2023-05-07T04:15:24;12.90;99.90
11009;DHT22;5557;51.670;7.788;2023-05-07T04:17:51;12.90;99.90
11009;DHT22;5557;51.670;7.788;2023-05-07T04:20:18;12.90;99.90
11009;DHT22;5557;51.670;7.788;2023-05-07T04:22:45;12.90;99.90
11009;DHT22;5557;51.670;7.788;2023-05-07T04:25:12;12.90;99.90
11009;DHT22;5557;51.670;7.788;2023-05-07T04:27:39;12.90;99.90
11009;DHT22;5557;51.670;7.788;2023-05-07T04:30:06;12.90;99.90
11009;DHT22;5557;51.670;7.788;2023-05-07T04:32:34;12.90;99.90
11009;DHT22;5557;51.670;7.788;2023-05-07T04:35:03;12.90;99.90
11009;DHT22;5557;51.670;7.788;2023-05-07T04:37:32;12.90;99.90
11009;DHT22;5557;51.670;7.788;2023-05-07T04:39:59;12.90;99.90
11009;DHT22;5557;51.670;7.788;2023-05-07T04:42:27;13.00;99.90
11009;DHT22;5557;51.670;7.788;2023-05-07T04:44:54;13.00;99.90
11009;DHT22;5557;51.670;7.788;2023-05-07T04:47:21;13.00;99.90
11009;DHT22;5557;51.670;7.788;2023-05-07T04:49:48;13.00;99.90
11009;DHT22;5557;51.670;7.788;2023-05-07T04:52:15;13.00;99.90
11009;DHT22;5557;51.670;7.788;2023-05-07T04:54:42;13.00;99.90
11009;DHT22;5557;51.670;7.788;2023-05-07T04:57:09;13.00;99.90
11009;DHT22;5557;51.670;7.788;2023-05-07T04:59:36;13.10;99.90
11009;DHT22;5557;51.670;7.788;2023-05-07T05:02:03;13.10;99.90
11009;DHT22;5557;51.670;7.788;2023-05-07T05:04:33;13.10;99.90
11009;DHT22;5557;51.670;7.788;2023-05-07T05:06:59;13.10;99.90
11009;DHT22;5557;51.670;7.788;2023-05-07T05:09:26;13.10;99.90
11009;DHT22;5557;51.670;7.788;2023-05-07T05:11:53;13.20;99.90
11009;DHT22;5557;51.670;7.788;2023-05-07T05:14:20;13.10;99.90
11009;DHT22;5557;51.670;7.788;2023-05-07T05:16:47;13.20;99.90
11009;DHT22;5557;51.670;7.788;2023-05-07T05:19:14;13.20;99.90
11009;DHT22;5557;51.670;7.788;2023-05-07T05:21:41;13.20;99.90
11009;DHT22;5557;51.670;7.788;2023-05-07T05:24:08;13.30;99.90
11009;DHT22;5557;51.670;7.788;2023-05-07T05:26:35;13.30;99.90
11009;DHT22;5557;51.670;7.788;2023-05-07T05:29:02;13.40;99.90
11009;DHT22;5557;51.670;7.788;2023-05-07T05:31:29;13.50;99.90
11009;DHT22;5557;51.670;7.788;2023-05-07T05:33:56;13.60;99.90
11009;DHT22;5557;51.670;7.788;2023-05-07T05:36:23;13.60;99.90
11009;DHT22;5557;51.670;7.788;2023-05-07T05:38:50;13.60;99.90
11009;DHT22;5557;51.670;7.788;2023-05-07T05:41:17;13.70;99.90
11009;DHT22;5557;51.670;7.788;2023-05-07T05:43:44;13.70;99.90
11009;DHT22;5557;51.670;7.788;2023-05-07T05:46:11;13.70;99.90
11009;DHT22;5557;51.670;7.788;2023-05-07T05:48:38;13.70;99.90
11009;DHT22;5557;51.670;7.788;2023-05-07T05:51:05;13.70;99.90
11009;DHT22;5557;51.670;7.788;2023-05-07T05:53:32;13.80;99.90
11009;DHT22;5557;51.670;7.788;2023-05-07T05:55:59;14.00;99.90
11009;DHT22;5557;51.670;7.788;2023-05-07T05:58:26;14.20;99.90
11009;DHT22;5557;51.670;7.788;2023-05-07T06:00:53;14.60;99.90
11009;DHT22;5557;51.670;7.788;2023-05-07T06:03:21;15.00;99.90
11009;DHT22;5557;51.670;7.788;2023-05-07T06:05:48;14.90;99.90
11009;DHT22;5557;51.670;7.788;2023-05-07T06:08:15;14.80;99.90
11009;DHT22;5557;51.670;7.788;2023-05-07T06:10:42;14.90;99.90
11009;DHT22;5557;51.670;7.788;2023-05-07T06:13:09;14.90;99.90
11009;DHT22;5557;51.670;7.788;2023-05-07T06:15:36;15.00;99.90
11009;DHT22;5557;51.670;7.788;2023-05-07T06:18:03;15.00;98.60
11009;DHT22;5557;51.670;7.788;2023-05-07T06:20:30;15.00;97.30
11009;DHT22;5557;51.670;7.788;2023-05-07T06:22:57;14.90;96.40
11009;DHT22;5557;51.670;7.788;2023-05-07T06:25:24;14.70;98.80
11009;DHT22;5557;51.670;7.788;2023-05-07T06:27:51;14.70;99.60
11009;DHT22;5557;51.670;7.788;2023-05-07T06:30:18;14.60;99.90
11009;DHT22;5557;51.670;7.788;2023-05-07T06:32:45;14.50;99.90
11009;DHT22;5557;51.670;7.788;2023-05-07T06:35:12;14.50;99.90
11009;DHT22;5557;51.670;7.788;2023-05-07T06:37:40;14.50;99.90
11009;DHT22;5557;51.670;7.788;2023-05-07T06:40:09;14.50;99.90
11009;DHT22;5557;51.670;7.788;2023-05-07T06:42:37;14.50;99.90
11009;DHT22;5557;51.670;7.788;2023-05-07T06:45:04;14.50;99.90
11009;DHT22;5557;51.670;7.788;2023-05-07T06:47:32;14.60;99.90
11009;DHT22;5557;51.670;7.788;2023-05-07T06:49:59;14.80;99.90
11009;DHT22;5557;51.670;7.788;2023-05-07T06:52:25;14.90;99.30
11009;DHT22;5557;51.670;7.788;2023-05-07T06:54:53;14.90;96.30
11009;DHT22;5557;51.670;7.788;2023-05-07T06:57:19;14.80;96.50
11009;DHT22;5557;51.670;7.788;2023-05-07T06:59:47;14.80;98.40
11009;DHT22;5557;51.670;7.788;2023-05-07T07:02:14;14.90;99.80
11009;DHT22;5557;51.670;7.788;2023-05-07T07:04:43;15.00;99.10
11009;DHT22;5557;51.670;7.788;2023-05-07T07:07:11;15.00;93.90
11009;DHT22;5557;51.670;7.788;2023-05-07T07:09:38;15.00;95.90
11009;DHT22;5557;51.670;7.788;2023-05-07T07:12:06;15.10;97.40
11009;DHT22;5557;51.670;7.788;2023-05-07T07:14:32;15.20;95.40
11009;DHT22;5557;51.670;7.788;2023-05-07T07:16:59;15.30;94.10
11009;DHT22;5557;51.670;7.788;2023-05-07T07:19:26;15.30;93.70
11009;DHT22;5557;51.670;7.788;2023-05-07T07:21:53;15.30;90.20
11009;DHT22;5557;51.670;7.788;2023-05-07T07:24:20;15.40;92.30
11009;DHT22;5557;51.670;7.788;2023-05-07T07:26:48;15.50;91.30
11009;DHT22;5557;51.670;7.788;2023-05-07T07:29:15;15.60;86.60
11009;DHT22;5557;51.670;7.788;2023-05-07T07:31:42;15.70;83.80
11009;DHT22;5557;51.670;7.788;2023-05-07T07:34:09;15.70;75.80
11009;DHT22;5557;51.670;7.788;2023-05-07T07:36:36;15.70;76.00
11009;DHT22;5557;51.670;7.788;2023-05-07T07:39:12;15.60;73.90
11009;DHT22;5557;51.670;7.788;2023-05-07T07:41:39;15.60;73.50
11009;DHT22;5557;51.670;7.788;2023-05-07T07:44:06;15.60;76.40
11009;DHT22;5557;51.670;7.788;2023-05-07T07:46:34;15.60;75.60
11009;DHT22;5557;51.670;7.788;2023-05-07T07:49:01;15.70;73.20
11009;DHT22;5557;51.670;7.788;2023-05-07T07:51:28;15.80;73.10
11009;DHT22;5557;51.670;7.788;2023-05-07T07:53:55;16.00;69.40
11009;DHT22;5557;51.670;7.788;2023-05-07T07:56:24;16.10;65.10
11009;DHT22;5557;51.670;7.788;2023-05-07T07:58:51;16.30;62.50
11009;DHT22;5557;51.670;7.788;2023-05-07T08:01:18;16.50;61.00
11009;DHT22;5557;51.670;7.788;2023-05-07T08:03:45;16.90;50.80
11009;DHT22;5557;51.670;7.788;2023-05-07T08:06:12;16.90;46.50
11009;DHT22;5557;51.670;7.788;2023-05-07T08:08:40;16.80;45.80
11009;DHT22;5557;51.670;7.788;2023-05-07T08:11:07;16.80;47.20
11009;DHT22;5557;51.670;7.788;2023-05-07T08:13:34;17.20;43.00
11009;DHT22;5557;51.670;7.788;2023-05-07T08:16:02;17.00;38.20
11009;DHT22;5557;51.670;7.788;2023-05-07T08:18:29;17.00;42.60
11009;DHT22;5557;51.670;7.788;2023-05-07T08:20:56;16.90;47.50
11009;DHT22;5557;51.670;7.788;2023-05-07T08:23:23;16.90;43.40
11009;DHT22;5557;51.670;7.788;2023-05-07T08:25:50;17.00;44.20
11009;DHT22;5557;51.670;7.788;2023-05-07T08:28:17;17.20;44.60
11009;DHT22;5557;51.670;7.788;2023-05-07T08:30:46;17.70;35.60
11009;DHT22;5557;51.670;7.788;2023-05-07T08:33:13;18.00;24.60
11009;DHT22;5557;51.670;7.788;2023-05-07T08:35:40;18.40;23.60
11009;DHT22;5557;51.670;7.788;2023-05-07T08:38:07;18.60;19.50
11009;DHT22;5557;51.670;7.788;2023-05-07T08:40:37;18.70;13.10
11009;DHT22;5557;51.670;7.788;2023-05-07T08:43:07;18.90;11.60
11009;DHT22;5557;51.670;7.788;2023-05-07T08:45:35;19.10;12.80
11009;DHT22;5557;51.670;7.788;2023-05-07T08:48:08;19.50;5.20
11009;DHT22;5557;51.670;7.788;2023-05-07T08:50:36;19.90;2.40
11009;DHT22;5557;51.670;7.788;2023-05-07T08:53:04;20.20;1.30
11009;DHT22;5557;51.670;7.788;2023-05-07T08:55:32;19.80;1.00
11009;DHT22;5557;51.670;7.788;2023-05-07T08:58:00;19.70;2.80
11009;DHT22;5557;51.670;7.788;2023-05-07T09:00:27;19.60;2.90
11009;DHT22;5557;51.670;7.788;2023-05-07T09:02:54;19.40;5.90
11009;DHT22;5557;51.670;7.788;2023-05-07T09:05:21;19.10;7.80
11009;DHT22;5557;51.670;7.788;2023-05-07T09:07:48;18.90;11.70
11009;DHT22;5557;51.670;7.788;2023-05-07T09:10:20;19.20;10.50
11009;DHT22;5557;51.670;7.788;2023-05-07T09:12:47;19.50;4.00
11009;DHT22;5557;51.670;7.788;2023-05-07T09:15:14;19.60;3.80
11009;DHT22;5557;51.670;7.788;2023-05-07T09:17:43;19.70;1.30
11009;DHT22;5557;51.670;7.788;2023-05-07T09:20:10;20.00;1.00
11009;DHT22;5557;51.670;7.788;2023-05-07T09:22:37;20.00;1.00
11009;DHT22;5557;51.670;7.788;2023-05-07T09:25:06;20.30;1.00
11009;DHT22;5557;51.670;7.788;2023-05-07T09:27:33;19.90;1.00
11009;DHT22;5557;51.670;7.788;2023-05-07T09:30:10;20.10;1.00
11009;DHT22;5557;51.670;7.788;2023-05-07T09:32:37;20.40;1.00
11009;DHT22;5557;51.670;7.788;2023-05-07T09:35:05;20.60;1.00
11009;DHT22;5557;51.670;7.788;2023-05-07T09:37:33;19.90;1.00
11009;DHT22;5557;51.670;7.788;2023-05-07T09:40:00;19.80;1.00
11009;DHT22;5557;51.670;7.788;2023-05-07T09:42:27;20.10;1.00
11009;DHT22;5557;51.670;7.788;2023-05-07T09:44:54;20.00;1.00
11009;DHT22;5557;51.670;7.788;2023-05-07T09:47:24;19.80;1.00
11009;DHT22;5557;51.670;7.788;2023-05-07T09:49:56;19.50;1.00
11009;DHT22;5557;51.670;7.788;2023-05-07T09:52:24;19.30;1.30
11009;DHT22;5557;51.670;7.788;2023-05-07T09:54:57;19.30;4.90
11009;DHT22;5557;51.670;7.788;2023-05-07T09:57:27;19.50;2.10
11009;DHT22;5557;51.670;7.788;2023-05-07T09:59:56;19.90;1.60
11009;DHT22;5557;51.670;7.788;2023-05-07T10:02:24;20.10;1.00
11009;DHT22;5557;51.670;7.788;2023-05-07T10:04:52;20.40;1.00
11009;DHT22;5557;51.670;7.788;2023-05-07T10:07:21;20.30;1.00
11009;DHT22;5557;51.670;7.788;2023-05-07T10:09:50;20.10;1.00
11009;DHT22;5557;51.670;7.788;2023-05-07T10:12:17;19.80;1.00
11009;DHT22;5557;51.670;7.788;2023-05-07T10:14:45;19.80;1.00
11009;DHT22;5557;51.670;7.788;2023-05-07T10:17:13;20.10;1.00
11009;DHT22;5557;51.670;7.788;2023-05-07T10:19:44;20.10;1.00
11009;DHT22;5557;51.670;7.788;2023-05-07T10:22:13;20.10;1.00
11009;DHT22;5557;51.670;7.788;2023-05-07T10:24:41;20.30;1.00
11009;DHT22;5557;51.670;7.788;2023-05-07T10:27:10;20.70;1.00
11009;DHT22;5557;51.670;7.788;2023-05-07T10:33:09;21.10;1.00
11009;DHT22;5557;51.670;7.788;2023-05-07T10:35:45;21.20;1.00
11009;DHT22;5557;51.670;7.788;2023-05-07T10:38:13;21.20;1.00
11009;DHT22;5557;51.670;7.788;2023-05-07T10:40:41;21.30;1.00
11009;DHT22;5557;51.670;7.788;2023-05-07T10:43:08;21.10;1.00
11009;DHT22;5557;51.670;7.788;2023-05-07T10:45:36;21.30;1.00
11009;DHT22;5557;51.670;7.788;2023-05-07T10:48:16;21.00;1.00
11009;DHT22;5557;51.670;7.788;2023-05-07T10:51:31;20.70;1.00
11009;DHT22;5557;51.670;7.788;2023-05-07T10:54:31;21.00;1.00
11009;DHT22;5557;51.670;7.788;2023-05-07T10:57:36;21.50;1.00
11009;DHT22;5557;51.670;7.788;2023-05-07T11:00:04;21.40;1.00
11009;DHT22;5557;51.670;7.788;2023-05-07T11:03:08;21.40;1.00
11009;DHT22;5557;51.670;7.788;2023-05-07T11:05:36;21.40;1.00
11009;DHT22;5557;51.670;7.788;2023-05-07T11:08:04;21.60;1.00
11009;DHT22;5557;51.670;7.788;2023-05-07T11:13:15;21.20;1.00
11009;DHT22;5557;51.670;7.788;2023-05-07T11:15:45;21.30;1.00
11009;DHT22;5557;51.670;7.788;2023-05-07T11:18:15;21.20;1.00
11009;DHT22;5557;51.670;7.788;2023-05-07T11:20:56;21.10;1.00
11009;DHT22;5557;51.670;7.788;2023-05-07T11:23:55;21.00;1.00
11009;DHT22;5557;51.670;7.788;2023-05-07T11:26:22;21.40;1.00
11009;DHT22;5557;51.670;7.788;2023-05-07T11:28:49;21.60;1.00
11009;DHT22;5557;51.670;7.788;2023-05-07T11:31:21;21.50;1.00
11009;DHT22;5557;51.670;7.788;2023-05-07T11:33:49;21.50;1.00
11009;DHT22;5557;51.670;7.788;2023-05-07T11:36:18;21.60;1.00
11009;DHT22;5557;51.670;7.788;2023-05-07T11:38:46;21.50;1.00
11009;DHT22;5557;51.670;7.788;2023-05-07T11:41:12;21.30;1.00
11009;DHT22;5557;51.670;7.788;2023-05-07T11:43:54;21.10;1.00
11009;DHT22;5557;51.670;7.788;2023-05-07T11:46:22;20.80;1.00
11009;DHT22;5557;51.670;7.788;2023-05-07T11:48:50;20.90;1.00
11009;DHT22;5557;51.670;7.788;2023-05-07T11:51:24;20.90;1.00
11009;DHT22;5557;51.670;7.788;2023-05-07T11:53:53;21.10;1.00
11009;DHT22;5557;51.670;7.788;2023-05-07T11:56:20;21.20;1.00
11009;DHT22;5557;51.670;7.788;2023-05-07T11:58:48;21.00;1.00
11009;DHT22;5557;51.670;7.788;2023-05-07T12:01:15;20.80;1.00
11009;DHT22;5557;51.670;7.788;2023-05-07T12:03:45;20.80;1.00
11009;DHT22;5557;51.670;7.788;2023-05-07T12:06:15;20.90;1.00
11009;DHT22;5557;51.670;7.788;2023-05-07T12:08:43;20.90;1.00
11009;DHT22;5557;51.670;7.788;2023-05-07T12:11:24;21.00;1.00
11009;DHT22;5557;51.670;7.788;2023-05-07T12:13:53;20.90;1.00
11009;DHT22;5557;51.670;7.788;2023-05-07T12:16:25;20.70;1.00
11009;DHT22;5557;51.670;7.788;2023-05-07T12:18:53;20.70;1.00
11009;DHT22;5557;51.670;7.788;2023-05-07T12:21:22;20.80;1.00
11009;DHT22;5557;51.670;7.788;2023-05-07T12:23:49;21.00;1.00
11009;DHT22;5557;51.670;7.788;2023-05-07T12:26:18;20.90;1.00
11009;DHT22;5557;51.670;7.788;2023-05-07T12:28:46;20.80;1.00
11009;DHT22;5557;51.670;7.788;2023-05-07T12:31:14;20.90;1.00
11009;DHT22;5557;51.670;7.788;2023-05-07T12:33:42;21.00;1.00
11009;DHT22;5557;51.670;7.788;2023-05-07T12:36:11;21.00;1.00
11009;DHT22;5557;51.670;7.788;2023-05-07T12:38:39;20.80;1.00
11009;DHT22;5557;51.670;7.788;2023-05-07T12:41:09;20.70;1.00
11009;DHT22;5557;51.670;7.788;2023-05-07T12:43:36;20.70;1.00
11009;DHT22;5557;51.670;7.788;2023-05-07T12:46:05;20.80;1.00
11009;DHT22;5557;51.670;7.788;2023-05-07T12:48:33;20.80;1.00
11009;DHT22;5557;51.670;7.788;2023-05-07T12:51:01;20.90;1.00
11009;DHT22;5557;51.670;7.788;2023-05-07T12:53:29;21.00;1.00
11009;DHT22;5557;51.670;7.788;2023-05-07T12:55:58;20.80;1.00
11009;DHT22;5557;51.670;7.788;2023-05-07T12:58:30;20.70;1.00
11009;DHT22;5557;51.670;7.788;2023-05-07T13:00:59;20.80;1.00
11009;DHT22;5557;51.670;7.788;2023-05-07T13:03:31;20.70;1.00
11009;DHT22;5557;51.670;7.788;2023-05-07T13:06:04;20.80;1.00
11009;DHT22;5557;51.670;7.788;2023-05-07T13:08:38;20.80;1.00
11009;DHT22;5557;51.670;7.788;2023-05-07T13:11:12;21.10;1.00
11009;DHT22;5557;51.670;7.788;2023-05-07T13:13:40;21.20;1.00
11009;DHT22;5557;51.670;7.788;2023-05-07T13:16:09;21.20;1.00
11009;DHT22;5557;51.670;7.788;2023-05-07T13:18:38;21.10;1.00
11009;DHT22;5557;51.670;7.788;2023-05-07T13:21:05;21.20;1.00
11009;DHT22;5557;51.670;7.788;2023-05-07T13:23:32;21.20;1.00
11009;DHT22;5557;51.670;7.788;2023-05-07T13:25:59;21.30;1.00
11009;DHT22;5557;51.670;7.788;2023-05-07T13:28:31;21.10;1.00
11009;DHT22;5557;51.670;7.788;2023-05-07T13:30:58;20.90;1.00
11009;DHT22;5557;51.670;7.788;2023-05-07T13:33:25;21.00;1.00
11009;DHT22;5557;51.670;7.788;2023-05-07T13:35:52;20.90;1.00
11009;DHT22;5557;51.670;7.788;2023-05-07T13:38:19;20.90;1.00
11009;DHT22;5557;51.670;7.788;2023-05-07T13:40:48;20.90;1.00
11009;DHT22;5557;51.670;7.788;2023-05-07T13:43:15;20.90;1.00
11009;DHT22;5557;51.670;7.788;2023-05-07T13:45:44;20.90;1.00
11009;DHT22;5557;51.670;7.788;2023-05-07T13:48:11;20.70;1.00
11009;DHT22;5557;51.670;7.788;2023-05-07T13:50:38;20.70;1.00
11009;DHT22;5557;51.670;7.788;2023-05-07T13:53:05;20.70;1.00
11009;DHT22;5557;51.670;7.788;2023-05-07T13:55:32;20.50;1.00
11009;DHT22;5557;51.670;7.788;2023-05-07T13:58:00;20.60;1.00
11009;DHT22;5557;51.670;7.788;2023-05-07T14:00:28;20.60;1.00
11009;DHT22;5557;51.670;7.788;2023-05-07T14:02:56;20.70;1.00
11009;DHT22;5557;51.670;7.788;2023-05-07T14:05:23;20.70;1.00
11009;DHT22;5557;51.670;7.788;2023-05-07T14:07:51;20.70;1.00
11009;DHT22;5557;51.670;7.788;2023-05-07T14:10:19;20.70;1.00
11009;DHT22;5557;51.670;7.788;2023-05-07T14:12:46;20.60;1.00
11009;DHT22;5557;51.670;7.788;2023-05-07T14:15:14;20.60;1.00
11009;DHT22;5557;51.670;7.788;2023-05-07T14:17:43;20.50;1.00
11009;DHT22;5557;51.670;7.788;2023-05-07T14:20:11;20.30;1.00
11009;DHT22;5557;51.670;7.788;2023-05-07T14:22:39;20.20;1.00
11009;DHT22;5557;51.670;7.788;2023-05-07T14:25:06;20.20;1.00
11009;DHT22;5557;51.670;7.788;2023-05-07T14:27:34;20.20;1.00
11009;DHT22;5557;51.670;7.788;2023-05-07T14:30:00;20.20;1.00
11009;DHT22;5557;51.670;7.788;2023-05-07T14:32:28;20.10;1.00
11009;DHT22;5557;51.670;7.788;2023-05-07T14:34:54;20.20;1.00
11009;DHT22;5557;51.670;7.788;2023-05-07T14:37:21;20.10;1.00
11009;DHT22;5557;51.670;7.788;2023-05-07T14:39:48;20.00;1.00
11009;DHT22;5557;51.670;7.788;2023-05-07T14:42:17;20.00;1.00
11009;DHT22;5557;51.670;7.788;2023-05-07T14:44:44;20.10;1.00
11009;DHT22;5557;51.670;7.788;2023-05-07T14:47:12;20.10;1.00
11009;DHT22;5557;51.670;7.788;2023-05-07T14:49:39;20.10;1.00
11009;DHT22;5557;51.670;7.788;2023-05-07T14:52:07;20.10;1.00
11009;DHT22;5557;51.670;7.788;2023-05-07T14:54:37;20.10;1.00
11009;DHT22;5557;51.670;7.788;2023-05-07T14:57:06;20.10;1.00
11009;DHT22;5557;51.670;7.788;2023-05-07T14:59:33;20.10;1.00
11009;DHT22;5557;51.670;7.788;2023-05-07T15:02:00;20.00;1.00
11009;DHT22;5557;51.670;7.788;2023-05-07T15:04:31;19.90;1.00
11009;DHT22;5557;51.670;7.788;2023-05-07T15:06:58;19.90;1.00
11009;DHT22;5557;51.670;7.788;2023-05-07T15:09:25;19.90;1.00
11009;DHT22;5557;51.670;7.788;2023-05-07T15:11:52;19.90;1.00
11009;DHT22;5557;51.670;7.788;2023-05-07T15:14:19;19.90;1.00
11009;DHT22;5557;51.670;7.788;2023-05-07T15:16:48;19.90;1.00
11009;DHT22;5557;51.670;7.788;2023-05-07T15:19:15;19.90;1.00
11009;DHT22;5557;51.670;7.788;2023-05-07T15:21:43;20.00;1.00
11009;DHT22;5557;51.670;7.788;2023-05-07T15:24:10;20.00;1.00
11009;DHT22;5557;51.670;7.788;2023-05-07T15:26:37;20.00;1.00
11009;DHT22;5557;51.670;7.788;2023-05-07T15:29:04;20.00;1.00
11009;DHT22;5557;51.670;7.788;2023-05-07T15:31:37;20.00;1.00
11009;DHT22;5557;51.670;7.788;2023-05-07T15:34:07;20.00;1.00
11009;DHT22;5557;51.670;7.788;2023-05-07T15:36:34;19.90;1.40
11009;DHT22;5557;51.670;7.788;2023-05-07T15:39:01;19.90;4.10
11009;DHT22;5557;51.670;7.788;2023-05-07T15:41:30;19.80;5.80
11009;DHT22;5557;51.670;7.788;2023-05-07T15:43:57;19.70;8.30
11009;DHT22;5557;51.670;7.788;2023-05-07T15:46:24;19.70;10.30
11009;DHT22;5557;51.670;7.788;2023-05-07T15:48:53;19.50;11.30
11009;DHT22;5557;51.670;7.788;2023-05-07T15:51:20;19.40;16.50
11009;DHT22;5557;51.670;7.788;2023-05-07T15:53:48;19.20;20.00
11009;DHT22;5557;51.670;7.788;2023-05-07T15:56:15;19.20;15.40
11009;DHT22;5557;51.670;7.788;2023-05-07T15:58:42;19.10;6.50
11009;DHT22;5557;51.670;7.788;2023-05-07T16:01:09;19.00;1.00
11009;DHT22;5557;51.670;7.788;2023-05-07T16:03:36;19.00;1.00
11009;DHT22;5557;51.670;7.788;2023-05-07T16:06:04;18.90;1.00